Time;durP1;ratioP1;P1;durP2;ratioP2;P2;SDS_P1;SDS_P2;PMS_P1;PMS_P2;Temp;Humidity;BMP_temperature;BMP_pressure;BME280_temperature;BME280_humidity;BME280_pressure;Samples;Min_cycle;Max_cycle;Signal;HPM_P1;HPM_P2
2022/05/07 00:01:51;;;;;;;59.70;40.35;;;;;;;13.30;100.00;98772.36;1626989;86;28114;-82
2022/05/07 00:04:18;;;;;;;58.83;40.40;;;;;;;13.27;100.00;98769.95;1626303;86;28206;-82
2022/05/07 00:06:44;;;;;;;64.05;41.60;;;;;;;13.25;100.00;98770.08;1625897;86;28136;-82
2022/05/07 00:09:11;;;;;;;60.50;39.88;;;;;;;13.29;100.00;98770.68;1624676;86;28130;-83
2022/05/07 00:11:37;;;;;;;61.50;39.40;;;;;;;13.32;100.00;98773.91;1623165;86;28049;-83
2022/05/07 00:14:03;;;;;;;61.08;40.50;;;;;;;13.34;100.00;98776.42;1626957;86;28091;-83
2022/05/07 00:19:20;;;;;;;60.67;40.15;;;;;;;13.36;100.00;98771.91;1625050;86;28080;-82
2022/05/07 00:21:47;;;;;;;61.95;40.65;;;;;;;13.34;100.00;98776.42;1623506;86;28222;-83
2022/05/07 00:24:13;;;;;;;61.30;40.20;;;;;;;13.31;100.00;98774.05;1623333;86;28080;-83
2022/05/07 00:26:39;;;;;;;62.15;40.23;;;;;;;13.31;100.00;98772.73;1630922;86;28009;-82
2022/05/07 00:29:06;;;;;;;56.13;39.83;;;;;;;13.32;100.00;98774.37;1624644;86;28084;-82
2022/05/07 00:31:32;;;;;;;57.55;40.00;;;;;;;13.40;100.00;98778.12;1625698;86;28118;-83
2022/05/07 00:33:59;;;;;;;57.08;38.30;;;;;;;13.48;100.00;98774.89;1623952;86;28073;-82
2022/05/07 00:36:25;;;;;;;60.05;39.20;;;;;;;13.53;100.00;98774.06;1629085;86;28098;-83
2022/05/07 00:38:52;;;;;;;56.55;38.08;;;;;;;13.47;100.00;98775.87;1621237;86;28155;-82
2022/05/07 00:41:20;;;;;;;54.40;35.90;;;;;;;13.52;100.00;98776.83;1629794;86;28187;-83
2022/05/07 00:43:46;;;;;;;53.87;36.15;;;;;;;13.55;100.00;98776.11;1625331;86;28156;-83
2022/05/07 00:46:13;;;;;;;56.88;39.50;;;;;;;13.53;100.00;98771.94;1622763;86;28136;-83
2022/05/07 00:48:39;;;;;;;54.58;37.55;;;;;;;13.51;100.00;98768.57;1629859;86;28084;-82
2022/05/07 00:53:52;;;;;;;55.40;37.50;;;;;;;13.57;100.00;98768.11;1623863;86;28112;-84
2022/05/07 00:56:18;;;;;;;55.85;36.28;;;;;;;13.63;100.00;98764.53;1623111;86;28162;-83
2022/05/07 00:58:44;;;;;;;55.85;38.15;;;;;;;13.69;100.00;98760.09;1621392;86;28065;-83
2022/05/07 01:01:11;;;;;;;52.93;36.00;;;;;;;13.77;100.00;98765.61;1625799;86;28088;-83
2022/05/07 01:03:38;;;;;;;53.63;37.23;;;;;;;13.82;100.00;98762.14;1630269;86;28132;-84
2022/05/07 01:06:05;;;;;;;54.95;38.63;;;;;;;13.74;100.00;98763.70;1624877;86;28083;-83
2022/05/07 01:08:32;;;;;;;55.35;36.48;;;;;;;13.64;100.00;98760.92;1622352;87;28107;-83
2022/05/07 01:10:59;;;;;;;52.98;36.03;;;;;;;13.63;100.00;98765.02;1625398;86;28111;-84
2022/05/07 01:13:27;;;;;;;49.08;33.23;;;;;;;13.61;100.00;98762.97;1626794;86;28124;-83
2022/05/07 01:16:00;;;;;;;53.52;35.03;;;;;;;13.60;100.00;98766.55;1624355;87;28128;-83
2022/05/07 01:18:27;;;;;;;48.68;32.73;;;;;;;13.63;100.00;98768.48;1626298;86;28182;-84
2022/05/07 01:20:59;;;;;;;51.40;34.05;;;;;;;13.74;100.00;98775.06;1627173;86;28163;-85
2022/05/07 01:23:23;;;;;;;51.33;32.98;;;;;;;13.83;100.00;98772.19;1617651;86;28026;-85
2022/05/07 01:25:49;;;;;;;49.60;33.75;;;;;;;13.88;100.00;98776.61;1638041;86;28086;-84
2022/05/07 01:28:15;;;;;;;49.80;33.75;;;;;;;13.93;100.00;98772.30;1616071;86;28087;-84
2022/05/07 01:30:42;;;;;;;49.70;34.58;;;;;;;13.98;100.00;98767.52;1613150;86;28053;-84
2022/05/07 01:33:11;;;;;;;51.13;35.83;;;;;;;14.03;100.00;98771.94;1610778;87;28190;-84
2022/05/07 01:35:37;;;;;;;49.98;34.53;;;;;;;14.06;100.00;98769.92;1616375;86;28086;-84
2022/05/07 01:38:05;;;;;;;54.38;36.80;;;;;;;14.06;100.00;98771.23;1617067;86;28198;-83
2022/05/07 01:40:31;;;;;;;53.55;36.53;;;;;;;14.08;100.00;98764.04;1613023;86;28119;-84
2022/05/07 01:42:57;;;;;;;54.15;37.53;;;;;;;14.11;100.00;98761.66;1614649;87;28099;-84
2022/05/07 01:45:28;;;;;;;58.58;37.88;;;;;;;14.17;100.00;98767.76;1637169;86;28195;-84
2022/05/07 01:48:10;;;;;;;50.75;33.00;;;;;;;14.19;100.00;98760.55;1633918;85;28108;-84
2022/05/07 01:50:42;;;;;;;50.28;35.15;;;;;;;14.11;100.00;98757.71;1634525;85;28027;-84
2022/05/07 01:53:11;;;;;;;55.23;35.17;;;;;;;14.02;100.00;98761.08;1638837;85;28143;-84
2022/05/07 01:55:37;;;;;;;62.75;40.52;;;;;;;14.09;100.00;98763.09;1639239;86;28008;-84
2022/05/07 01:58:04;;;;;;;62.17;39.05;;;;;;;14.13;100.00;98763.67;1608709;87;28089;-84
2022/05/07 02:00:32;;;;;;;57.53;38.17;;;;;;;14.08;100.00;98760.56;1631993;85;28188;-84
2022/05/07 02:02:59;;;;;;;56.90;39.03;;;;;;;13.99;100.00;98763.93;1631307;86;28168;-84
2022/05/07 02:05:28;;;;;;;60.48;39.53;;;;;;;13.89;100.00;98762.98;1627598;86;28070;-84
2022/05/07 02:07:55;;;;;;;59.80;39.13;;;;;;;13.77;100.00;98762.98;1635846;85;28133;-84
2022/05/07 02:10:22;;;;;;;55.83;38.08;;;;;;;13.75;100.00;98765.36;1637681;85;28075;-84
2022/05/07 02:12:50;;;;;;;61.15;39.10;;;;;;;13.78;100.00;98763.34;1635085;86;28063;-84
2022/05/07 02:15:16;;;;;;;62.45;39.50;;;;;;;13.80;100.00;98765.36;1634216;87;28128;-84
2022/05/07 02:17:43;;;;;;;62.10;40.95;;;;;;;13.81;100.00;98767.04;1604640;87;28081;-84
2022/05/07 02:20:09;;;;;;;60.38;39.45;;;;;;;13.80;100.00;98766.67;1610121;87;28032;-84
2022/05/07 02:22:36;;;;;;;61.15;39.95;;;;;;;13.83;100.00;98763.82;1613450;86;28136;-84
2022/05/07 02:25:04;;;;;;;64.00;40.60;;;;;;;13.82;100.00;98763.45;1607386;87;28116;-84
2022/05/07 02:27:30;;;;;;;62.05;40.33;;;;;;;13.81;100.00;98761.78;1614007;86;28240;-83
2022/05/07 02:29:56;;;;;;;61.37;39.70;;;;;;;13.87;100.00;98755.67;1610876;86;28159;-83
2022/05/07 02:32:23;;;;;;;64.03;40.10;;;;;;;13.88;100.00;98756.88;1612834;86;28105;-83
2022/05/07 02:34:49;;;;;;;62.88;40.10;;;;;;;13.80;100.00;98750.08;1623771;87;28044;-83
2022/05/07 02:37:15;;;;;;;58.92;37.67;;;;;;;13.79;100.00;98754.98;1623133;85;28050;-83
2022/05/07 02:39:42;;;;;;;62.35;39.18;;;;;;;13.77;100.00;98752.94;1624365;86;28137;-83
2022/05/07 02:44:53;;;;;;;59.20;37.45;;;;;;;13.87;100.00;98755.20;1628733;85;28069;-83
2022/05/07 02:47:19;;;;;;;62.70;39.33;;;;;;;13.89;100.00;98743.25;1625195;85;28179;-83
2022/05/07 02:49:46;;;;;;;65.37;40.50;;;;;;;13.90;100.00;98752.83;1621477;87;28119;-83
2022/05/07 02:52:13;;;;;;;59.05;37.60;;;;;;;13.85;100.00;98749.23;1624868;86;28095;-84
2022/05/07 02:54:39;;;;;;;57.43;37.08;;;;;;;13.89;100.00;98752.45;1623113;85;27997;-84
2022/05/07 02:57:05;;;;;;;52.83;35.38;;;;;;;13.90;100.00;98759.40;1624487;87;28125;-84
2022/05/07 02:59:34;;;;;;;59.48;37.03;;;;;;;13.81;100.00;98754.36;1622354;86;28089;-84
2022/05/07 03:02:00;;;;;;;60.15;37.90;;;;;;;13.74;100.00;98753.19;1624841;86;28151;-84
2022/05/07 03:04:27;;;;;;;57.73;37.60;;;;;;;13.65;100.00;98757.82;1624548;87;28092;-84
2022/05/07 03:06:53;;;;;;;54.63;36.93;;;;;;;13.57;100.00;98749.22;1620833;87;28108;-84
2022/05/07 03:09:20;;;;;;;57.73;35.80;;;;;;;13.51;100.00;98757.58;1624832;85;28164;-84
2022/05/07 03:11:46;;;;;;;52.65;34.53;;;;;;;13.44;100.00;98755.05;1620975;85;28113;-84
2022/05/07 03:14:12;;;;;;;55.10;36.35;;;;;;;13.37;100.00;98755.15;1620166;86;28099;-84
2022/05/07 03:16:39;;;;;;;54.85;35.85;;;;;;;13.29;100.00;98751.81;1626727;86;28060;-84
2022/05/07 03:19:06;;;;;;;55.67;35.63;;;;;;;13.23;100.00;98755.37;1624708;86;28171;-84
2022/05/07 03:21:34;;;;;;;55.48;37.08;;;;;;;13.14;100.00;98749.50;1622567;86;28100;-84
2022/05/07 03:24:00;;;;;;;58.35;37.75;;;;;;;13.08;100.00;98746.83;1617613;86;28151;-84
2022/05/07 03:26:27;;;;;;;61.70;39.27;;;;;;;13.03;100.00;98748.12;1621564;87;28194;-84
2022/05/07 03:28:53;;;;;;;59.13;39.40;;;;;;;13.00;100.00;98748.70;1624612;85;28161;-84
2022/05/07 03:31:19;;;;;;;61.85;41.30;;;;;;;13.00;100.00;98743.92;1625086;86;27997;-84
2022/05/07 03:33:47;;;;;;;56.13;37.53;;;;;;;13.07;100.00;98747.77;1623068;87;28351;-84
2022/05/07 03:36:15;;;;;;;54.98;36.55;;;;;;;13.19;100.00;98749.52;1621476;87;28101;-84
2022/05/07 03:38:42;;;;;;;55.60;37.48;;;;;;;13.43;100.00;98753.38;1618853;86;28077;-84
2022/05/07 03:41:08;;;;;;;60.73;39.13;;;;;;;13.63;100.00;98760.59;1621035;86;28220;-84
2022/05/07 03:43:36;;;;;;;60.90;39.00;;;;;;;13.77;100.00;98755.56;1625472;86;28139;-84
2022/05/07 03:46:06;;;;;;;58.63;39.88;;;;;;;13.86;100.00;98761.41;1620762;86;28181;-84
2022/05/07 03:48:33;;;;;;;58.63;38.17;;;;;;;13.93;100.00;98761.30;1626068;86;28112;-84
2022/05/07 03:50:59;;;;;;;63.42;40.55;;;;;;;13.97;100.00;98757.94;1638549;85;28116;-83
2022/05/07 03:53:32;;;;;;;60.17;40.78;;;;;;;14.00;100.00;98755.09;1639800;85;28221;-84
2022/05/07 03:56:05;;;;;;;55.73;38.73;;;;;;;14.04;100.00;98757.83;1634919;86;28180;-84
2022/05/07 03:58:33;;;;;;;57.62;38.23;;;;;;;14.06;100.00;98755.92;1636708;85;28114;-84
2022/05/07 04:01:00;;;;;;;52.88;36.25;;;;;;;14.07;100.00;98758.92;1640574;85;28065;-83
2022/05/07 04:03:29;;;;;;;51.55;36.93;;;;;;;14.13;100.00;98763.67;1631184;86;28037;-83
2022/05/07 04:05:56;;;;;;;52.10;35.50;;;;;;;14.08;100.00;98763.20;1642232;86;28077;-83
2022/05/07 04:08:23;;;;;;;51.73;36.23;;;;;;;14.04;100.00;98761.77;1608129;86;28065;-83
2022/05/07 04:10:51;;;;;;;48.95;34.75;;;;;;;14.00;100.00;98770.88;1588713;88;28184;-83
2022/05/07 04:13:17;;;;;;;52.33;36.63;;;;;;;13.95;100.00;98774.34;1608273;87;28085;-83
2022/05/07 04:15:44;;;;;;;54.40;35.52;;;;;;;13.97;100.00;98770.62;1613073;86;28115;-83
2022/05/07 04:18:11;;;;;;;53.33;37.38;;;;;;;14.01;100.00;98772.55;1610401;86;28140;-82
2022/05/07 04:20:38;;;;;;;57.27;38.35;;;;;;;13.97;100.00;98777.67;1609601;86;28138;-82
2022/05/07 04:23:10;;;;;;;51.15;37.20;;;;;;;13.91;100.00;98775.55;1605944;86;28193;-83
2022/05/07 04:25:38;;;;;;;55.50;36.70;;;;;;;13.86;100.00;98774.56;1621873;86;28103;-83
2022/05/07 04:28:04;;;;;;;54.80;37.17;;;;;;;13.90;100.00;98779.13;1625193;86;28089;-83
2022/05/07 04:30:30;;;;;;;49.95;34.95;;;;;;;13.94;100.00;98785.34;1628974;86;28140;-83
2022/05/07 04:32:56;;;;;;;46.10;34.65;;;;;;;13.99;100.00;98780.56;1621649;86;28087;-83
2022/05/07 04:35:23;;;;;;;47.78;35.10;;;;;;;13.96;100.00;98779.50;1625852;86;28125;-83
2022/05/07 04:37:49;;;;;;;49.55;34.20;;;;;;;13.97;100.00;98782.47;1624898;87;28065;-83
2022/05/07 04:40:16;;;;;;;49.67;35.28;;;;;;;13.96;100.00;98787.88;1624669;87;28059;-83
2022/05/07 04:42:42;;;;;;;47.55;33.70;;;;;;;13.91;100.00;98782.13;1626037;86;28128;-83
2022/05/07 04:45:09;;;;;;;48.58;34.83;;;;;;;13.89;100.00;98784.88;1624374;86;28092;-83
2022/05/07 04:47:35;;;;;;;51.55;34.75;;;;;;;13.88;100.00;98778.41;1626107;86;27998;-83
2022/05/07 04:50:01;;;;;;;51.40;35.88;;;;;;;13.91;100.00;98784.77;1624561;86;28203;-83
2022/05/07 04:52:28;;;;;;;48.68;32.53;;;;;;;13.93;100.00;98788.09;1626193;86;28088;-83
2022/05/07 04:54:54;;;;;;;48.75;33.33;;;;;;;13.87;100.00;98788.56;1621708;86;28101;-83
2022/05/07 04:57:21;;;;;;;48.30;33.78;;;;;;;13.83;100.00;98788.81;1623622;86;28160;-83
2022/05/07 04:59:47;;;;;;;53.15;35.03;;;;;;;13.90;100.00;98792.29;1623314;87;28119;-83
2022/05/07 05:02:13;;;;;;;50.58;35.60;;;;;;;13.96;100.00;98792.66;1627296;86;28088;-83
2022/05/07 05:04:40;;;;;;;52.73;35.70;;;;;;;13.96;100.00;98796.60;1625795;86;28168;-83
2022/05/07 05:07:06;;;;;;;52.75;36.80;;;;;;;13.99;100.00;98802.93;1623338;86;28085;-83
2022/05/07 05:09:33;;;;;;;53.58;34.92;;;;;;;14.02;100.00;98803.19;1621744;86;28121;-83
2022/05/07 05:11:59;;;;;;;54.40;35.83;;;;;;;14.01;100.00;98804.97;1621549;87;28108;-83
2022/05/07 05:17:12;;;;;;;56.90;35.73;;;;;;;14.10;100.00;98803.41;1623589;87;28088;-83
2022/05/07 05:19:38;;;;;;;54.60;35.95;;;;;;;14.13;100.00;98808.41;1625547;87;28112;-84
2022/05/07 05:22:04;;;;;;;54.90;36.63;;;;;;;14.12;100.00;98808.92;1623123;87;28083;-84
2022/05/07 05:24:31;;;;;;;53.23;34.90;;;;;;;14.17;100.00;98811.19;1628010;86;28006;-83
2022/05/07 05:26:57;;;;;;;57.03;36.40;;;;;;;14.17;100.00;98809.88;1623157;87;28108;-83
2022/05/07 05:29:24;;;;;;;57.43;36.28;;;;;;;14.15;100.00;98812.62;1622849;87;28093;-84
2022/05/07 05:31:50;;;;;;;56.55;36.05;;;;;;;14.13;100.00;98812.36;1624122;86;28200;-83
2022/05/07 05:34:16;;;;;;;57.85;38.00;;;;;;;14.05;100.00;98818.72;1620502;87;28035;-84
2022/05/07 05:36:43;;;;;;;51.42;35.15;;;;;;;14.00;100.00;98813.82;1614888;86;28063;-84
2022/05/07 05:39:09;;;;;;;52.13;35.13;;;;;;;14.00;100.00;98818.24;1631168;87;28047;-84
2022/05/07 05:41:36;;;;;;;58.55;36.55;;;;;;;13.99;100.00;98812.61;1629694;85;28188;-84
2022/05/07 05:44:03;;;;;;;53.50;35.08;;;;;;;14.01;100.00;98821.23;1626906;85;28186;-83
2022/05/07 05:46:29;;;;;;;53.75;35.90;;;;;;;14.02;100.00;98822.41;1646730;84;28131;-84
2022/05/07 05:48:55;;;;;;;50.65;34.23;;;;;;;14.02;100.00;98821.60;1620503;87;28139;-84
2022/05/07 05:51:25;;;;;;;52.10;36.30;;;;;;;14.02;100.00;98820.29;1649750;84;28074;-84
2022/05/07 05:53:51;;;;;;;52.53;35.28;;;;;;;14.03;100.00;98821.94;1615552;88;28118;-83
2022/05/07 05:56:17;;;;;;;50.73;35.13;;;;;;;14.03;100.00;98826.73;1614851;86;28081;-84
2022/05/07 05:58:44;;;;;;;53.05;33.75;;;;;;;14.14;100.00;98822.78;1645723;85;28136;-84
2022/05/07 06:01:11;;;;;;;53.42;35.30;;;;;;;14.21;100.00;98827.09;1645139;85;28131;-84
2022/05/07 06:03:38;;;;;;;46.02;33.28;;;;;;;14.25;100.00;98828.05;1646962;84;28089;-83
2022/05/07 06:06:04;;;;;;;50.75;34.75;;;;;;;14.38;100.00;98827.12;1647248;84;28195;-83
2022/05/07 06:08:31;;;;;;;52.85;34.80;;;;;;;14.43;100.00;98828.43;1618976;86;28183;-83
2022/05/07 06:10:59;;;;;;;50.60;35.03;;;;;;;14.42;100.00;98829.86;1612158;88;28073;-83
2022/05/07 06:13:25;;;;;;;52.43;34.92;;;;;;;14.40;100.00;98831.28;1616951;86;28109;-83
2022/05/07 06:15:54;;;;;;;47.38;33.18;;;;;;;14.43;100.00;98832.38;1642199;85;28127;-83
2022/05/07 06:18:22;;;;;;;47.73;33.10;;;;;;;14.45;100.00;98833.58;1625581;86;28176;-83
2022/05/07 06:20:52;;;;;;;48.02;32.88;;;;;;;14.51;100.00;98838.37;1645988;85;28075;-83
2022/05/07 06:23:19;;;;;;;52.55;34.75;;;;;;;14.60;100.00;98841.58;1646950;84;28160;-83
2022/05/07 06:28:30;;;;;;;49.70;34.27;;;;;;;14.73;100.00;98850.16;1620907;86;28110;-83
2022/05/07 06:30:59;;;;;;;47.17;33.48;;;;;;;14.74;100.00;98853.16;1616932;86;28071;-83
2022/05/07 06:33:26;;;;;;;47.30;34.53;;;;;;;14.80;100.00;98852.66;1621716;86;28034;-83
2022/05/07 06:35:52;;;;;;;49.33;33.45;;;;;;;14.84;100.00;98860.67;1620330;86;28100;-83
2022/05/07 06:38:19;;;;;;;46.75;33.35;;;;;;;14.84;100.00;98853.24;1614460;85;28059;-83
2022/05/07 06:40:45;;;;;;;45.88;31.55;;;;;;;14.84;100.00;98859.83;1612765;86;28187;-83
2022/05/07 06:43:12;;;;;;;40.65;29.20;;;;;;;14.81;100.00;98858.77;1621106;86;28179;-83
2022/05/07 06:45:40;;;;;;;40.70;30.15;;;;;;;14.72;100.00;98859.05;1626519;85;28192;-84
2022/05/07 06:48:11;;;;;;;43.68;31.05;;;;;;;14.68;100.00;98855.44;1621581;86;28149;-84
2022/05/07 06:50:39;;;;;;;46.70;31.52;;;;;;;14.72;100.00;98860.84;1623140;86;28195;-85
2022/05/07 06:53:05;;;;;;;43.52;30.72;;;;;;;14.74;100.00;98861.53;1625563;86;28104;-84
2022/05/07 06:55:33;;;;;;;44.63;30.85;;;;;;;14.78;100.00;98861.19;1626100;87;28181;-84
2022/05/07 06:57:59;;;;;;;41.60;29.02;;;;;;;14.82;100.00;98866.56;1625456;87;23734;-84
2022/05/07 07:00:25;;;;;;;41.68;29.80;;;;;;;14.79;100.00;98868.59;1626672;87;28039;-84
2022/05/07 07:02:52;;;;;;;36.95;27.02;;;;;;;14.72;100.00;98867.42;1623460;87;28085;-84
2022/05/07 07:05:18;;;;;;;;;;;;;;;14.64;100.00;98859.64;1632047;86;28179;-85
2022/05/07 07:07:44;;;;;;;;;;;;;;;14.62;100.00;98864.19;1633920;86;20635;-84
2022/05/07 07:10:10;;;;;;;37.95;26.20;;;;;;;14.61;100.00;98865.17;1624997;86;21640;-84
2022/05/07 07:12:42;;;;;;;40.95;29.05;;;;;;;14.64;100.00;98863.59;1621346;86;28009;-86
2022/05/07 07:15:09;;;;;;;40.33;28.23;;;;;;;14.64;100.00;98866.23;1628765;86;28123;-84
2022/05/07 07:17:36;;;;;;;40.10;29.05;;;;;;;14.76;100.00;98875.44;1621627;86;28039;-84
2022/05/07 07:20:02;;;;;;;39.20;27.27;;;;;;;14.83;100.00;98873.52;1626301;87;28088;-85
2022/05/07 07:22:29;;;;;;;39.05;28.00;;;;;;;14.88;100.00;98880.57;1623749;87;28184;-85
2022/05/07 07:24:55;;;;;;;38.38;27.93;;;;;;;14.94;100.00;98875.29;1629898;86;28141;-85
2022/05/07 07:27:21;;;;;;;40.05;27.75;;;;;;;15.02;100.00;98875.48;1633327;86;28115;-85
2022/05/07 07:29:48;;;;;;;37.65;26.90;;;;;;;15.06;100.00;98876.91;1632384;87;28082;-85
2022/05/07 07:32:15;;;;;;;39.00;27.90;;;;;;;15.07;100.00;98870.20;1632229;86;28141;-85
2022/05/07 07:34:41;;;;;;;35.55;24.27;;;;;;;15.06;100.00;98876.43;1633076;86;28139;-84
2022/05/07 07:37:08;;;;;;;40.12;25.80;;;;;;;15.07;100.00;98880.75;1625306;86;28101;-84
2022/05/07 07:39:34;;;;;;;37.80;27.30;;;;;;;15.01;100.00;98869.85;1625249;86;28064;-84
2022/05/07 07:42:00;;;;;;;36.17;24.92;;;;;;;15.06;100.00;98875.11;1626234;86;28106;-84
2022/05/07 07:44:27;;;;;;;36.05;26.48;;;;;;;15.12;100.00;98876.41;1624723;86;28084;-84
2022/05/07 07:49:38;;;;;;;33.70;23.98;;;;;;;15.30;100.00;98881.99;1640642;85;28129;-84
2022/05/07 07:52:05;;;;;;;36.08;24.72;;;;;;;15.29;100.00;98875.88;1642316;85;28078;-84
2022/05/07 07:54:31;;;;;;;32.85;23.02;;;;;;;15.19;100.00;98876.28;1639475;85;28175;-84
2022/05/07 07:57:02;;;;;;;32.75;21.93;;;;;;;15.23;100.00;98876.38;1637205;86;28093;-84
2022/05/07 07:59:27;;;;;;;30.85;20.60;;;;;;;15.25;100.00;98876.26;1626002;87;28041;-83
2022/05/07 08:01:53;;;;;;;31.62;20.60;;;;;;;15.25;100.00;98879.73;1626622;86;28146;-83
2022/05/07 08:04:22;;;;;;;29.90;20.23;;;;;;;15.31;100.00;98881.03;1627500;86;28199;-85
2022/05/07 08:11:40;;;;;;;26.25;18.12;;;;;;;15.33;100.00;98879.93;1627309;86;28120;-85
2022/05/07 08:12:11;;;;;;;19.85;14.23;;;;;;;15.04;100.00;98897.30;1627655;86;28170;-84
2022/05/07 08:14:37;;;;;;;23.22;15.28;;;;;;;14.82;100.00;98894.71;1629166;86;28095;-85
2022/05/07 08:17:04;;;;;;;23.47;16.32;;;;;;;14.79;100.00;98893.63;1627216;87;28087;-85
2022/05/07 08:19:32;;;;;;;25.32;16.67;;;;;;;14.80;100.00;98894.83;1627597;86;28062;-85
2022/05/07 08:21:58;;;;;;;19.25;12.58;;;;;;;14.79;100.00;98898.89;1627580;87;28076;-85
2022/05/07 08:24:24;;;;;;;15.40;10.68;;;;;;;14.76;100.00;98894.72;1627596;86;28088;-85
2022/05/07 08:26:51;;;;;;;20.52;11.73;;;;;;;14.76;100.00;98897.83;1622290;86;28094;-85
2022/05/07 08:29:17;;;;;;;16.17;10.23;;;;;;;14.75;100.00;98903.58;1621911;87;28145;-84
2022/05/07 08:31:43;;;;;;;17.12;10.35;;;;;;;14.73;100.00;98900.21;1621540;88;28182;-84
2022/05/07 08:34:09;;;;;;;17.50;11.38;;;;;;;14.79;100.00;98906.31;1622776;87;28095;-85
2022/05/07 08:36:42;;;;;;;16.65;11.38;;;;;;;14.91;100.00;98905.34;1616541;87;28178;-85
2022/05/07 08:39:11;;;;;;;19.23;12.50;;;;;;;14.96;100.00;98903.66;1615255;88;28097;-84
2022/05/07 08:41:38;;;;;;;19.48;11.88;;;;;;;14.98;100.00;98906.54;1616058;88;28096;-84
2022/05/07 08:44:06;;;;;;;19.87;12.50;;;;;;;14.98;100.00;98904.37;1617355;86;28081;-84
2022/05/07 08:46:32;;;;;;;27.95;11.90;;;;;;;14.99;100.00;98904.74;1616254;87;28190;-85
2022/05/07 08:48:59;;;;;;;19.85;13.68;;;;;;;15.01;100.00;98908.08;1615988;88;28099;-85
2022/05/07 08:51:26;;;;;;;19.50;15.23;;;;;;;15.01;100.00;98908.08;1615882;87;28024;-84
2022/05/07 08:53:56;;;;;;;16.27;11.70;;;;;;;14.85;100.00;98907.62;1615562;86;28119;-84
2022/05/07 08:56:21;;;;;;;12.18;8.95;;;;;;;14.67;100.00;98907.31;1615775;87;28180;-85
2022/05/07 08:58:52;;;;;;;14.10;8.93;;;;;;;14.52;100.00;98905.86;1617391;88;28293;-84
2022/05/07 09:01:20;;;;;;;13.30;8.73;;;;;;;14.44;100.00;98905.16;1616936;88;28013;-84
2022/05/07 09:03:48;;;;;;;12.10;8.65;;;;;;;14.37;100.00;98905.27;1617494;87;28108;-84
2022/05/07 09:06:26;;;;;;;11.48;7.75;;;;;;;14.48;100.00;98903.95;1614354;87;28114;-84
2022/05/07 09:08:56;;;;;;;11.53;7.80;;;;;;;14.56;100.00;98908.64;1611475;87;28127;-85
2022/05/07 09:11:23;;;;;;;11.95;7.65;;;;;;;14.59;100.00;98905.27;1616371;88;28179;-87
2022/05/07 09:14:05;;;;;;;9.28;6.58;;;;;;;14.62;100.00;98905.02;1613385;88;28095;-85
2022/05/07 09:16:40;;;;;;;11.80;6.60;;;;;;;14.68;100.00;98906.80;1616166;88;28161;-85
2022/05/07 09:19:08;;;;;;;9.73;7.58;;;;;;;14.74;100.00;98908.95;1615569;88;28116;-85
2022/05/07 09:21:35;;;;;;;12.40;6.83;;;;;;;14.92;100.00;98917.57;1613881;88;28194;-84
2022/05/07 09:24:08;;;;;;;14.05;6.97;;;;;;;14.98;100.00;98921.03;1614392;86;28123;-84
2022/05/07 09:26:40;;;;;;;10.75;6.97;;;;;;;14.99;100.00;98927.98;1615730;87;28089;-84
2022/05/07 09:29:08;;;;;;;10.28;7.42;;;;;;;15.00;100.00;98924.37;1624471;88;28089;-84
2022/05/07 09:31:36;;;;;;;10.18;7.12;;;;;;;15.14;100.00;98924.59;1622824;88;28100;-84
2022/05/07 09:36:56;;;;;;;16.93;9.18;;;;;;;15.38;100.00;98925.22;1620788;88;28131;-84
2022/05/07 09:39:25;;;;;;;19.80;12.53;;;;;;;15.45;100.00;98917.17;1621516;86;28155;-84
2022/05/07 09:41:55;;;;;;;15.43;9.80;;;;;;;15.46;100.00;98925.45;1622380;86;28104;-84
2022/05/07 09:44:24;;;;;;;12.13;9.20;;;;;;;15.49;100.00;98921.73;1616254;88;28135;-84
2022/05/07 09:46:50;;;;;;;13.85;7.72;;;;;;;15.58;100.00;98925.44;1616083;88;28128;-84
2022/05/07 09:49:17;;;;;;;12.68;6.92;;;;;;;15.58;100.00;98921.00;1616198;86;28108;-84
2022/05/07 09:51:45;;;;;;;13.13;8.03;;;;;;;15.55;100.00;98918.59;1615040;88;28145;-84
2022/05/07 09:59:45;;;;;;;12.35;8.70;;;;;;;15.50;100.00;98912.83;1616277;86;28200;-84
2022/05/07 10:02:42;;;;;;;10.65;8.10;;;;;;;15.38;100.00;98915.99;1616438;88;28159;-84
2022/05/07 10:05:29;;;;;;;10.30;7.03;;;;;;;15.31;100.00;98916.16;1614530;88;28138;-84
2022/05/07 10:08:20;;;;;;;11.10;7.60;;;;;;;15.29;100.00;98911.95;1614822;87;28130;-84
2022/05/07 10:10:49;;;;;;;9.63;6.53;;;;;;;15.33;100.00;98916.84;1617915;87;28057;-85
2022/05/07 10:13:17;;;;;;;8.15;6.83;;;;;;;15.42;100.00;98910.84;1614731;86;28205;-85
2022/05/07 10:15:59;;;;;;;11.28;7.80;;;;;;;15.52;100.00;98906.99;1613312;87;28092;-84
2022/05/07 10:18:34;;;;;;;9.45;7.30;;;;;;;15.63;100.00;98910.06;1587212;89;28162;-84
2022/05/07 10:21:13;;;;;;;10.98;7.50;;;;;;;15.61;100.00;98908.02;1610158;86;28095;-85
2022/05/07 10:23:55;;;;;;;10.32;6.75;;;;;;;15.54;100.00;98906.39;1609559;88;28163;-85
2022/05/07 10:26:39;;;;;;;10.45;6.35;;;;;;;15.50;100.00;98909.72;1610248;86;28247;-85
2022/05/07 10:29:09;;;;;;;8.85;6.53;;;;;;;15.40;100.00;98901.37;1613939;88;28073;-85
2022/05/07 10:31:45;;;;;;;6.60;5.97;;;;;;;15.36;100.00;98905.23;1605919;88;28002;-84
2022/05/07 10:34:14;;;;;;;8.93;7.50;;;;;;;15.28;100.00;98908.48;1595889;87;28166;-84
2022/05/07 10:36:41;;;;;;;9.78;6.75;;;;;;;15.23;100.00;98905.38;1617885;87;28018;-85
2022/05/07 10:39:08;;;;;;;13.40;7.65;;;;;;;15.27;100.00;98896.28;1592055;87;28097;-84
2022/05/07 10:41:47;;;;;;;10.58;7.67;;;;;;;15.34;100.00;98890.84;1622095;87;28113;-85
2022/05/07 10:44:17;;;;;;;10.88;7.80;;;;;;;15.44;100.00;98895.71;1616149;87;28093;-85
2022/05/07 10:46:44;;;;;;;11.73;7.53;;;;;;;15.56;100.00;98893.05;1619190;87;28079;-84
2022/05/07 10:49:10;;;;;;;10.00;7.60;;;;;;;15.64;100.00;98890.64;1616199;87;28095;-85
2022/05/07 10:51:50;;;;;;;13.08;7.83;;;;;;;15.71;100.00;98889.98;1619210;87;28042;-85
2022/05/07 10:54:24;;;;;;;11.38;7.80;;;;;;;15.75;100.00;98882.18;1622619;87;28110;-85
2022/05/07 10:56:58;;;;;;;12.33;8.18;;;;;;;15.84;100.00;98883.20;1623420;86;28181;-85
2022/05/07 10:59:26;;;;;;;10.45;7.10;;;;;;;15.84;100.00;98876.12;1614745;87;28073;-85
2022/05/07 11:02:05;;;;;;;12.03;7.78;;;;;;;15.86;100.00;98876.84;1621116;86;28085;-85
2022/05/07 11:04:43;;;;;;;12.28;7.35;;;;;;;15.81;100.00;98866.31;1619664;87;28159;-85
2022/05/07 11:07:26;;;;;;;11.20;7.78;;;;;;;15.78;100.00;98862.12;1619638;87;28086;-85
2022/05/07 11:09:49;;;;;;;11.60;7.83;;;;;;;15.61;100.00;98853.94;1615478;86;28018;-84
2022/05/07 11:12:17;;;;;;;14.53;8.38;;;;;;;15.57;100.00;98853.84;1619175;87;28106;-85
2022/05/07 11:14:43;;;;;;;10.25;7.30;;;;;;;15.53;100.00;98842.72;1617161;87;28073;-84
2022/05/07 11:17:10;;;;;;;10.48;7.47;;;;;;;15.56;100.00;98841.13;1619439;86;28137;-84
2022/05/07 11:19:41;;;;;;;10.25;7.78;;;;;;;15.59;100.00;98842.69;1618945;87;28167;-84
2022/05/07 11:22:10;;;;;;;12.07;6.97;;;;;;;15.58;100.00;98844.97;1616960;87;28199;-84
2022/05/07 11:24:37;;;;;;;10.90;7.87;;;;;;;15.57;100.00;98845.45;1619641;87;28083;-84
2022/05/07 11:27:11;;;;;;;10.03;7.42;;;;;;;15.66;100.00;98855.22;1629382;84;28175;-84
2022/05/07 11:29:36;;;;;;;12.78;8.08;;;;;;;15.74;100.00;98854.11;1642336;84;28098;-84
2022/05/07 11:32:06;;;;;;;11.88;7.25;;;;;;;15.72;100.00;98848.59;1647395;85;28086;-84
2022/05/07 11:34:38;;;;;;;9.23;7.22;;;;;;;15.72;100.00;98844.64;1638509;86;28178;-84
2022/05/07 11:37:17;;;;;;;9.05;7.20;;;;;;;15.74;100.00;98837.44;1635451;86;28058;-84
2022/05/07 11:39:56;;;;;;;11.73;8.38;;;;;;;15.72;100.00;98829.64;1635200;85;28121;-85
2022/05/07 11:42:43;;;;;;;11.25;8.03;;;;;;;15.59;100.00;98826.86;1633963;86;28102;-85
2022/05/07 11:45:26;;;;;;;12.10;8.35;;;;;;;15.61;100.00;98818.31;1640691;85;28109;-85